Time;durP1;ratioP1;P1;durP2;ratioP2;P2;SDS_P1;SDS_P2;PMS_P1;PMS_P2;Temp;Humidity;BMP_temperature;BMP_pressure;BME280_temperature;BME280_humidity;BME280_pressure;Samples;Min_cycle;Max_cycle;Signal;HPM_P1;HPM_P2
2023/12/30 00:00:59;;;;;;;9.33;5.00;;;8.90;1.00;;;;;;5094389;28;20191;-63
2023/12/30 00:03:25;;;;;;;10.70;4.60;;;9.00;1.00;;;;;;5095701;28;20220;-64
2023/12/30 00:05:51;;;;;;;14.47;4.57;;;9.00;1.00;;;;;;5094653;28;20205;-62
2023/12/30 00:08:17;;;;;;;11.17;4.57;;;8.90;1.00;;;;;;5094961;28;20209;-62
2023/12/30 00:10:42;;;;;;;15.77;5.93;;;8.90;1.00;;;;;;5093255;28;20193;-63
2023/12/30 00:13:08;;;;;;;11.77;4.80;;;8.90;1.00;;;;;;5094439;28;20181;-62
2023/12/30 00:15:34;;;;;;;12.80;4.33;;;8.90;1.00;;;;;;5094124;28;20192;-63
2023/12/30 00:18:00;;;;;;;9.27;4.70;;;8.90;1.00;;;;;;5094151;28;20211;-62
2023/12/30 00:20:25;;;;;;;17.50;4.77;;;8.90;1.00;;;;;;5094395;28;20242;-63
2023/12/30 00:22:51;;;;;;;9.10;4.83;;;8.90;1.00;;;;;;5094663;28;20223;-62
2023/12/30 00:25:17;;;;;;;10.80;4.73;;;9.00;1.00;;;;;;5094157;28;20205;-63
2023/12/30 00:27:43;;;;;;;9.57;4.43;;;9.00;99.90;;;;;;5094178;28;20254;-63
2023/12/30 00:30:12;;;;;;;11.97;4.63;;;9.00;99.90;;;;;;5094005;28;20219;-63
2023/12/30 00:32:39;;;;;;;8.63;4.43;;;9.00;99.90;;;;;;5094745;28;20702;-63
2023/12/30 00:35:07;;;;;;;9.40;4.70;;;9.00;1.00;;;;;;5075992;28;20189;-63
2023/12/30 00:37:33;;;;;;;16.20;4.83;;;8.90;99.90;;;;;;5094033;28;20205;-62
2023/12/30 00:39:59;;;;;;;15.53;5.10;;;8.90;99.90;;;;;;5094301;28;20177;-62
2023/12/30 00:42:25;;;;;;;12.50;4.70;;;8.90;99.90;;;;;;5094166;28;20181;-61
2023/12/30 00:44:51;;;;;;;11.90;4.80;;;8.90;99.90;;;;;;5094607;28;20684;-62
2023/12/30 00:47:17;;;;;;;9.17;4.80;;;9.00;1.00;;;;;;5093802;28;20196;-63
2023/12/30 00:49:43;;;;;;;12.13;4.60;;;9.00;1.00;;;;;;5094120;28;20173;-62
2023/12/30 00:52:10;;;;;;;8.73;4.50;;;8.90;1.00;;;;;;5092947;28;20181;-63
2023/12/30 00:54:36;;;;;;;8.20;4.80;;;9.00;1.00;;;;;;5093985;28;20205;-62
2023/12/30 00:57:02;;;;;;;8.40;4.50;;;9.00;73.60;;;;;;5093560;28;20751;-62
2023/12/30 00:59:28;;;;;;;12.10;4.57;;;9.00;1.00;;;;;;5093721;28;20203;-63
2023/12/30 01:01:54;;;;;;;12.63;5.33;;;8.90;1.00;;;;;;5093276;28;20262;-62
2023/12/30 01:04:20;;;;;;;5.67;4.70;;;8.90;1.00;;;;;;5093872;28;20323;-64
2023/12/30 01:06:46;;;;;;;9.07;4.83;;;8.90;99.90;;;;;;5093657;28;20342;-62
2023/12/30 01:09:11;;;;;;;10.37;4.70;;;8.80;80.80;;;;;;5093862;28;20526;-62
2023/12/30 01:11:37;;;;;;;11.00;5.20;;;8.80;1.00;;;;;;5093805;28;20185;-62
2023/12/30 01:14:03;;;;;;;7.77;4.60;;;8.80;1.00;;;;;;5093619;28;20641;-63
2023/12/30 01:16:30;;;;;;;10.40;5.27;;;8.70;1.00;;;;;;5093287;28;20214;-63
2023/12/30 01:18:56;;;;;;;12.83;5.70;;;8.70;1.00;;;;;;5093652;28;20707;-62
2023/12/30 01:21:22;;;;;;;9.10;5.00;;;8.70;1.00;;;;;;5096210;28;20212;-63
2023/12/30 01:23:47;;;;;;;11.97;5.07;;;8.70;99.90;;;;;;5097931;28;20212;-62
2023/12/30 01:26:13;;;;;;;12.53;5.50;;;8.80;1.00;;;;;;5097617;28;20266;-61
2023/12/30 01:28:39;;;;;;;16.63;5.47;;;8.70;99.90;;;;;;5098125;28;20185;-62
2023/12/30 01:31:05;;;;;;;14.90;4.77;;;8.70;15.80;;;;;;5097096;28;20272;-62
2023/12/30 01:33:30;;;;;;;8.00;4.77;;;8.70;99.90;;;;;;5097213;28;20268;-62
2023/12/30 01:35:56;;;;;;;10.87;5.00;;;8.70;1.00;;;;;;5097773;28;20197;-63
2023/12/30 01:38:22;;;;;;;9.23;4.90;;;8.70;1.00;;;;;;5097573;28;20668;-62
2023/12/30 01:40:48;;;;;;;14.53;5.10;;;8.70;99.90;;;;;;5097766;28;20190;-63
2023/12/30 01:43:28;;;;;;;12.03;6.00;;;8.70;1.00;;;;;;5097597;28;20189;-63
2023/12/30 01:45:58;;;;;;;13.87;4.73;;;8.70;99.90;;;;;;5097010;28;20672;-63
2023/12/30 01:48:25;;;;;;;12.33;4.70;;;8.70;1.00;;;;;;5097286;28;20248;-62
2023/12/30 01:50:52;;;;;;;10.93;4.90;;;8.70;1.00;;;;;;5097236;28;20173;-62
2023/12/30 01:53:19;;;;;;;12.30;5.50;;;8.80;28.00;;;;;;5096720;28;20185;-62
2023/12/30 01:55:49;;;;;;;12.00;4.73;;;8.70;1.00;;;;;;5097009;28;20203;-62
2023/12/30 01:58:15;;;;;;;10.43;5.03;;;8.70;1.00;;;;;;5097016;28;20201;-62
2023/12/30 02:00:42;;;;;;;13.43;5.20;;;8.70;33.60;;;;;;5096503;28;20224;-61
2023/12/30 02:03:08;;;;;;;9.63;5.23;;;8.60;1.00;;;;;;5096683;28;20205;-62
2023/12/30 02:05:35;;;;;;;7.97;4.90;;;8.60;1.00;;;;;;5096315;28;20216;-62
2023/12/30 02:08:01;;;;;;;11.23;4.63;;;8.60;1.00;;;;;;5097237;28;20197;-62
2023/12/30 02:10:26;;;;;;;12.77;5.10;;;8.60;99.90;;;;;;5096820;28;20235;-63
2023/12/30 02:12:52;;;;;;;10.13;5.27;;;8.60;1.00;;;;;;5096892;28;20181;-63
2023/12/30 02:15:18;;;;;;;14.40;5.50;;;8.60;99.90;;;;;;5096568;28;20204;-63
2023/12/30 02:17:44;;;;;;;9.30;4.80;;;8.60;99.90;;;;;;5096382;28;20296;-63
2023/12/30 02:20:10;;;;;;;8.40;4.70;;;8.50;1.00;;;;;;5096537;28;20185;-62
2023/12/30 02:22:45;;;;;;;11.03;5.30;;;8.50;1.00;;;;;;5096459;28;20178;-62
2023/12/30 02:25:11;;;;;;;8.93;5.00;;;8.40;99.90;;;;;;5077964;28;20236;-62
2023/12/30 02:27:37;;;;;;;12.10;5.33;;;8.30;99.90;;;;;;5095949;28;20197;-62
2023/12/30 02:30:03;;;;;;;10.67;5.27;;;8.30;99.90;;;;;;5096012;28;20177;-62
2023/12/30 02:32:29;;;;;;;10.17;5.10;;;8.30;1.00;;;;;;5095581;28;20173;-63
2023/12/30 02:34:54;;;;;;;10.53;5.10;;;8.40;1.00;;;;;;5096578;28;20192;-63
2023/12/30 02:37:20;;;;;;;10.17;5.57;;;8.30;99.90;;;;;;5096267;28;20200;-63
2023/12/30 02:39:46;;;;;;;11.23;5.53;;;8.40;1.00;;;;;;5096819;28;20177;-62
2023/12/30 02:42:12;;;;;;;8.60;4.90;;;8.40;99.90;;;;;;5096166;28;20181;-61
2023/12/30 02:44:37;;;;;;;8.63;5.20;;;8.40;1.00;;;;;;5096072;28;20216;-62
2023/12/30 02:47:03;;;;;;;11.00;5.37;;;8.40;1.00;;;;;;5095943;28;20198;-63
2023/12/30 02:49:32;;;;;;;9.53;5.33;;;8.40;76.10;;;;;;5096090;28;20173;-62
2023/12/30 02:51:57;;;;;;;8.63;4.30;;;8.40;99.90;;;;;;5077925;28;20185;-63
2023/12/30 02:54:23;;;;;;;12.07;5.23;;;8.40;99.90;;;;;;5077750;28;20211;-62
2023/12/30 02:56:49;;;;;;;9.93;4.67;;;8.30;1.00;;;;;;5095853;28;20701;-62
2023/12/30 02:59:15;;;;;;;12.13;6.13;;;8.40;1.00;;;;;;5096246;28;20638;-63
2023/12/30 03:01:40;;;;;;;13.77;5.50;;;8.30;1.00;;;;;;5094870;28;20242;-62
2023/12/30 03:04:06;;;;;;;9.83;5.20;;;8.20;90.50;;;;;;5096076;28;20256;-63
2023/12/30 03:06:32;;;;;;;14.03;5.43;;;8.30;24.30;;;;;;5095650;28;20213;-63
2023/12/30 03:08:59;;;;;;;10.90;5.93;;;8.20;99.90;;;;;;5096002;28;20303;-62
2023/12/30 03:11:25;;;;;;;11.03;5.00;;;8.20;99.90;;;;;;5095792;28;20177;-62
2023/12/30 03:13:51;;;;;;;10.27;4.90;;;8.10;99.90;;;;;;5095798;28;20181;-62
2023/12/30 03:16:18;;;;;;;13.60;5.37;;;8.10;99.90;;;;;;5095210;28;20618;-63
2023/12/30 03:18:45;;;;;;;18.87;5.70;;;8.10;99.90;;;;;;5095246;28;20182;-62
2023/12/30 03:21:14;;;;;;;13.03;5.07;;;8.10;99.90;;;;;;5095916;28;20186;-63
2023/12/30 03:23:41;;;;;;;10.23;5.70;;;8.20;99.90;;;;;;5095525;28;20181;-63
2023/12/30 03:26:10;;;;;;;11.47;5.50;;;8.20;99.90;;;;;;5095155;28;20222;-63
2023/12/30 03:28:37;;;;;;;13.43;5.73;;;8.20;99.90;;;;;;5095246;28;20243;-62
2023/12/30 03:31:03;;;;;;;11.87;5.50;;;8.10;1.00;;;;;;5094492;28;20181;-62
2023/12/30 03:33:29;;;;;;;16.03;5.97;;;8.20;99.90;;;;;;5095005;28;20641;-61
2023/12/30 03:35:54;;;;;;;9.27;5.27;;;8.20;1.00;;;;;;5094913;28;20177;-63
2023/12/30 03:38:21;;;;;;;11.23;5.33;;;8.20;99.90;;;;;;5095012;28;20258;-62
2023/12/30 03:40:47;;;;;;;16.80;5.40;;;8.20;99.90;;;;;;5095143;28;20181;-63
2023/12/30 03:43:13;;;;;;;11.63;5.10;;;8.20;99.90;;;;;;5094253;28;20239;-63
2023/12/30 03:45:39;;;;;;;15.40;5.17;;;8.20;99.90;;;;;;5093596;28;20728;-63
2023/12/30 03:48:06;;;;;;;13.40;5.23;;;8.20;67.70;;;;;;5095053;28;20630;-62
2023/12/30 03:50:31;;;;;;;15.40;5.53;;;8.20;99.90;;;;;;5095122;28;20630;-63
2023/12/30 03:52:57;;;;;;;16.00;5.30;;;8.20;99.90;;;;;;5094857;28;20182;-63
2023/12/30 03:55:23;;;;;;;16.33;5.87;;;8.10;99.90;;;;;;5076594;28;20185;-62
2023/12/30 03:57:49;;;;;;;11.87;5.87;;;8.10;99.90;;;;;;5094699;28;20213;-62
2023/12/30 04:00:15;;;;;;;13.67;5.20;;;8.10;99.90;;;;;;5094743;28;20672;-63
2023/12/30 04:02:40;;;;;;;10.07;5.17;;;8.10;99.90;;;;;;5076365;28;20250;-63
2023/12/30 04:05:06;;;;;;;10.43;5.30;;;8.10;99.90;;;;;;5094120;28;20680;-63
2023/12/30 04:07:32;;;;;;;16.90;5.50;;;8.00;1.00;;;;;;5094282;28;20197;-62
2023/12/30 04:09:58;;;;;;;12.10;5.30;;;8.00;99.90;;;;;;5094373;28;20246;-63
2023/12/30 04:12:24;;;;;;;19.47;6.33;;;8.00;1.00;;;;;;5095490;28;20169;-63
2023/12/30 04:14:51;;;;;;;12.53;6.10;;;8.10;99.90;;;;;;5094755;28;20181;-63
2023/12/30 04:17:16;;;;;;;10.10;5.37;;;8.00;1.00;;;;;;5094029;28;20196;-64
2023/12/30 04:19:43;;;;;;;12.83;5.40;;;8.10;1.00;;;;;;5094352;28;20173;-63
2023/12/30 04:22:08;;;;;;;9.93;5.20;;;8.00;1.00;;;;;;5094015;28;20177;-63
2023/12/30 04:24:34;;;;;;;10.73;5.37;;;8.00;1.00;;;;;;5093844;28;20181;-63
2023/12/30 04:27:00;;;;;;;14.00;5.60;;;8.00;1.00;;;;;;5094087;28;20211;-63
2023/12/30 04:29:28;;;;;;;9.93;5.20;;;8.00;1.00;;;;;;5094246;28;20214;-63
2023/12/30 04:31:54;;;;;;;12.30;4.97;;;8.10;1.00;;;;;;5075848;28;20260;-63
2023/12/30 04:34:20;;;;;;;12.67;5.47;;;8.10;1.00;;;;;;5093717;28;20197;-63
2023/12/30 04:36:46;;;;;;;13.23;5.40;;;8.10;1.00;;;;;;5094104;28;20212;-63
2023/12/30 04:39:11;;;;;;;13.67;5.27;;;8.10;1.00;;;;;;5094059;28;20185;-62
2023/12/30 04:41:38;;;;;;;12.07;5.50;;;8.10;1.00;;;;;;5094024;28;20653;-62
2023/12/30 04:44:03;;;;;;;15.57;5.63;;;8.10;1.00;;;;;;5094410;28;20188;-63
2023/12/30 04:46:29;;;;;;;10.70;5.27;;;8.10;1.00;;;;;;5093622;28;20208;-63
2023/12/30 04:48:55;;;;;;;15.13;5.57;;;8.10;1.00;;;;;;5093515;28;20184;-62
2023/12/30 04:51:21;;;;;;;9.10;5.10;;;8.10;1.00;;;;;;5093308;28;20214;-62
2023/12/30 04:53:47;;;;;;;14.40;5.47;;;8.10;1.00;;;;;;5093497;28;20176;-62
2023/12/30 04:56:16;;;;;;;8.20;5.40;;;8.10;1.00;;;;;;5093275;28;20209;-62
2023/12/30 04:58:43;;;;;;;10.47;5.73;;;8.10;99.90;;;;;;5093985;28;20153;-63
2023/12/30 05:01:08;;;;;;;14.27;5.03;;;8.10;99.90;;;;;;5093439;28;20181;-62
2023/12/30 05:03:35;;;;;;;16.03;5.53;;;8.10;1.00;;;;;;5093174;28;20553;-62
2023/12/30 05:06:02;;;;;;;11.07;5.27;;;8.20;1.00;;;;;;5093610;28;20219;-63
2023/12/30 05:08:31;;;;;;;15.63;5.43;;;8.10;1.00;;;;;;5075324;28;20195;-63
2023/12/30 05:10:57;;;;;;;11.10;5.10;;;8.20;99.90;;;;;;5093411;28;20181;-62
2023/12/30 05:13:22;;;;;;;9.50;5.07;;;8.20;1.00;;;;;;5093626;28;20268;-63
2023/12/30 05:15:49;;;;;;;10.67;5.13;;;8.20;1.00;;;;;;5093723;28;20207;-63
2023/12/30 05:18:15;;;;;;;19.00;6.00;;;8.10;99.90;;;;;;5093445;28;20611;-64
2023/12/30 05:20:41;;;;;;;16.67;5.80;;;8.10;99.90;;;;;;5093680;28;20173;-63
2023/12/30 05:23:07;;;;;;;8.67;5.50;;;8.00;99.90;;;;;;5093228;28;20188;-62
2023/12/30 05:25:33;;;;;;;16.30;6.03;;;8.00;1.00;;;;;;5093776;28;20588;-62
2023/12/30 05:27:59;;;;;;;11.57;5.53;;;7.90;1.00;;;;;;5093975;28;20314;-62
2023/12/30 05:30:25;;;;;;;13.87;5.07;;;7.90;1.00;;;;;;5093806;28;20194;-62
2023/12/30 05:32:51;;;;;;;12.17;5.57;;;7.90;61.60;;;;;;5093178;28;20181;-62
2023/12/30 05:35:17;;;;;;;13.97;5.70;;;8.00;91.90;;;;;;5093502;28;20184;-63
2023/12/30 05:37:43;;;;;;;11.73;6.27;;;8.00;99.90;;;;;;5093389;28;20201;-63
2023/12/30 05:40:10;;;;;;;13.83;6.20;;;8.00;99.90;;;;;;5093568;28;20177;-63
2023/12/30 05:42:35;;;;;;;14.90;5.87;;;8.00;99.90;;;;;;5092777;28;20231;-63
2023/12/30 05:45:01;;;;;;;10.77;5.07;;;8.00;99.90;;;;;;5092844;28;20213;-62
2023/12/30 05:47:27;;;;;;;14.10;5.30;;;8.00;99.90;;;;;;5092981;28;20197;-63
2023/12/30 05:49:53;;;;;;;13.47;5.83;;;8.00;99.90;;;;;;5093400;28;20555;-63
2023/12/30 05:52:19;;;;;;;9.47;5.37;;;8.00;42.40;;;;;;5093861;28;20211;-63
2023/12/30 05:54:45;;;;;;;12.80;5.67;;;8.00;1.00;;;;;;5093344;28;20645;-62
2023/12/30 05:57:11;;;;;;;10.90;5.10;;;8.00;1.00;;;;;;5074949;28;20223;-62
2023/12/30 05:59:36;;;;;;;15.43;5.10;;;7.90;99.90;;;;;;5093344;28;20220;-63
2023/12/30 06:02:02;;;;;;;17.13;6.40;;;7.90;99.90;;;;;;5093155;28;20174;-63
2023/12/30 06:04:29;;;;;;;9.87;5.97;;;8.00;99.90;;;;;;5093449;28;20657;-62
2023/12/30 06:06:55;;;;;;;11.57;5.40;;;8.00;1.00;;;;;;5092960;28;20212;-62
2023/12/30 06:09:22;;;;;;;13.63;5.73;;;7.90;99.90;;;;;;5096849;28;20536;-63
2023/12/30 06:11:48;;;;;;;11.27;5.30;;;7.90;1.00;;;;;;5096675;28;20177;-62
2023/12/30 06:14:14;;;;;;;15.80;6.33;;;7.90;1.00;;;;;;5097182;28;20191;-63
2023/12/30 06:16:40;;;;;;;13.17;5.73;;;7.90;1.00;;;;;;5096369;28;20197;-63
2023/12/30 06:19:06;;;;;;;13.53;5.60;;;7.90;1.00;;;;;;5096554;28;20227;-63
2023/12/30 06:21:31;;;;;;;14.43;5.77;;;7.90;34.70;;;;;;5095932;28;20680;-63
2023/12/30 06:23:57;;;;;;;14.13;6.10;;;7.80;99.90;;;;;;5096757;28;20181;-63
2023/12/30 06:26:23;;;;;;;13.83;5.57;;;7.80;99.90;;;;;;5095977;28;20308;-63
2023/12/30 06:28:49;;;;;;;11.20;5.47;;;7.80;99.90;;;;;;5096832;28;20614;-63
2023/12/30 06:31:15;;;;;;;10.17;5.37;;;7.80;1.00;;;;;;5096047;28;20549;-63
2023/12/30 06:33:41;;;;;;;12.10;5.60;;;7.80;99.90;;;;;;5096088;28;20181;-63
2023/12/30 06:36:07;;;;;;;8.80;5.07;;;7.80;99.90;;;;;;5096271;28;20621;-63
2023/12/30 06:38:33;;;;;;;10.57;5.43;;;7.80;99.90;;;;;;5096692;28;20181;-63
2023/12/30 06:40:59;;;;;;;14.23;5.60;;;7.80;99.90;;;;;;5096586;28;20182;-62
2023/12/30 06:43:25;;;;;;;19.57;6.30;;;7.80;99.90;;;;;;5078076;28;20557;-64
2023/12/30 06:45:50;;;;;;;13.27;6.33;;;7.80;1.00;;;;;;5096304;28;20216;-63
2023/12/30 06:48:21;;;;;;;12.17;6.13;;;7.80;1.00;;;;;;5095433;28;20173;-63
2023/12/30 06:50:47;;;;;;;12.50;6.13;;;7.80;10.80;;;;;;5095787;28;20161;-63
2023/12/30 06:53:12;;;;;;;15.57;6.07;;;7.80;99.90;;;;;;5095754;28;20181;-63
2023/12/30 06:55:38;;;;;;;15.50;5.70;;;7.80;99.90;;;;;;5095716;28;20589;-62
2023/12/30 06:58:04;;;;;;;13.13;6.00;;;7.70;1.00;;;;;;5095433;28;20193;-62
2023/12/30 07:00:30;;;;;;;20.87;6.43;;;7.70;99.90;;;;;;5077263;28;20650;-63
2023/12/30 07:02:56;;;;;;;10.07;5.30;;;7.80;99.90;;;;;;5076785;28;20246;-63
2023/12/30 07:05:22;;;;;;;10.77;5.60;;;7.80;99.90;;;;;;5096024;28;20208;-63
2023/12/30 07:07:48;;;;;;;11.97;5.47;;;7.80;99.90;;;;;;5095825;28;20208;-63
2023/12/30 07:10:14;;;;;;;14.67;5.40;;;7.80;99.90;;;;;;5095724;28;20601;-63
2023/12/30 07:12:39;;;;;;;14.67;5.50;;;7.80;99.90;;;;;;5095940;28;20173;-62
2023/12/30 07:15:06;;;;;;;13.13;5.60;;;7.80;1.00;;;;;;5095581;28;20223;-62
2023/12/30 07:17:31;;;;;;;19.00;6.03;;;7.90;1.00;;;;;;5095319;28;20253;-63
2023/12/30 07:19:58;;;;;;;16.27;6.00;;;7.90;1.00;;;;;;5095792;28;20268;-63
2023/12/30 07:22:24;;;;;;;9.83;5.40;;;7.90;99.90;;;;;;5095502;28;20177;-63
2023/12/30 07:24:50;;;;;;;24.73;6.00;;;7.90;99.90;;;;;;5095333;28;20256;-62
2023/12/30 07:27:16;;;;;;;18.40;5.80;;;7.80;99.90;;;;;;5095230;28;20197;-63
2023/12/30 07:29:42;;;;;;;14.93;6.07;;;7.80;99.90;;;;;;5095458;28;20177;-63
2023/12/30 07:32:07;;;;;;;12.97;6.00;;;7.70;1.00;;;;;;5094968;28;20185;-62
2023/12/30 07:34:33;;;;;;;11.43;5.40;;;7.60;1.00;;;;;;5095684;28;20173;-63
2023/12/30 07:37:01;;;;;;;11.57;5.50;;;7.60;1.00;;;;;;5094900;28;20288;-62
2023/12/30 07:39:28;;;;;;;13.83;6.33;;;7.70;99.90;;;;;;5095275;28;20181;-63
2023/12/30 07:41:54;;;;;;;13.03;5.50;;;7.60;99.90;;;;;;5094435;28;20558;-63
2023/12/30 07:44:20;;;;;;;14.30;5.63;;;7.70;99.90;;;;;;5094732;28;20683;-63
2023/12/30 07:46:47;;;;;;;11.97;5.83;;;7.70;99.90;;;;;;5094498;28;20282;-62
2023/12/30 07:49:13;;;;;;;10.80;5.93;;;7.60;99.90;;;;;;5094322;28;20669;-63
2023/12/30 07:51:39;;;;;;;21.37;6.03;;;7.60;99.90;;;;;;5076909;28;20181;-62
2023/12/30 07:54:05;;;;;;;14.37;5.53;;;7.60;99.90;;;;;;5094732;28;20185;-62
2023/12/30 07:56:30;;;;;;;14.17;6.07;;;7.60;99.90;;;;;;5094649;28;20213;-63
2023/12/30 07:58:56;;;;;;;11.70;5.77;;;7.60;99.90;;;;;;5094746;28;20646;-63
2023/12/30 08:01:22;;;;;;;16.10;5.50;;;7.60;1.00;;;;;;5095339;28;20526;-63
2023/12/30 08:03:48;;;;;;;13.23;6.17;;;7.60;1.00;;;;;;5094662;28;20302;-63
2023/12/30 08:06:14;;;;;;;13.00;5.80;;;7.60;1.00;;;;;;5094477;28;20564;-63
2023/12/30 08:08:39;;;;;;;10.17;5.63;;;7.60;1.00;;;;;;5094670;28;20181;-63
2023/12/30 08:11:05;;;;;;;12.00;5.23;;;7.60;1.00;;;;;;5094507;28;20209;-63
2023/12/30 08:13:31;;;;;;;9.97;5.50;;;7.70;1.00;;;;;;5094149;28;20617;-63
2023/12/30 08:15:58;;;;;;;12.73;5.67;;;7.80;99.90;;;;;;5094921;28;20272;-63
2023/12/30 08:18:23;;;;;;;10.07;5.47;;;7.80;99.90;;;;;;5094312;28;20178;-63
2023/12/30 08:20:51;;;;;;;9.70;5.17;;;7.80;1.00;;;;;;5094380;28;20227;-62
2023/12/30 08:23:17;;;;;;;22.07;5.70;;;7.90;1.00;;;;;;5075479;28;20739;-63
2023/12/30 08:25:42;;;;;;;10.80;5.60;;;7.90;99.90;;;;;;5094211;28;20221;-63
2023/12/30 08:28:08;;;;;;;13.53;6.27;;;7.80;99.90;;;;;;5094529;28;20180;-63
2023/12/30 08:30:34;;;;;;;15.40;5.77;;;7.90;1.00;;;;;;5093643;28;20549;-62
2023/12/30 08:33:06;;;;;;;14.67;5.60;;;7.90;26.20;;;;;;5093968;28;20189;-63
2023/12/30 08:35:32;;;;;;;13.80;5.80;;;7.90;99.90;;;;;;5094301;28;20295;-63
2023/12/30 08:37:58;;;;;;;9.93;5.23;;;7.80;99.90;;;;;;5094286;28;20650;-62
2023/12/30 08:40:24;;;;;;;10.77;5.23;;;7.90;99.90;;;;;;5076037;28;20216;-63
2023/12/30 08:42:51;;;;;;;12.30;5.13;;;7.80;1.00;;;;;;5094546;28;20189;-63
2023/12/30 08:45:19;;;;;;;16.20;5.97;;;7.80;1.00;;;;;;5093811;28;20642;-63
2023/12/30 08:47:48;;;;;;;15.70;5.97;;;7.80;1.00;;;;;;5093591;28;20229;-63
2023/12/30 08:50:14;;;;;;;12.73;5.43;;;7.80;1.00;;;;;;5093505;28;20252;-62
2023/12/30 08:52:39;;;;;;;9.13;5.60;;;7.90;1.00;;;;;;5094585;28;20208;-63
2023/12/30 08:55:10;;;;;;;11.90;5.47;;;7.90;1.00;;;;;;5093645;28;20609;-62
2023/12/30 08:57:39;;;;;;;12.67;5.20;;;7.90;1.00;;;;;;5075355;28;20743;-63
2023/12/30 09:00:08;;;;;;;14.50;6.10;;;7.90;1.00;;;;;;5093774;28;20185;-62
2023/12/30 09:02:37;;;;;;;11.20;5.50;;;7.90;1.00;;;;;;5093353;28;20181;-62
2023/12/30 09:05:05;;;;;;;13.20;5.87;;;7.90;1.00;;;;;;5075666;28;20231;-62
2023/12/30 09:07:31;;;;;;;11.30;5.63;;;7.90;1.00;;;;;;5093765;28;20209;-62
2023/12/30 09:09:58;;;;;;;12.63;5.53;;;7.90;1.00;;;;;;5093094;28;20184;-62
2023/12/30 09:12:24;;;;;;;12.57;5.53;;;8.00;81.90;;;;;;5093713;28;20642;-62
2023/12/30 09:14:50;;;;;;;16.83;5.83;;;8.00;1.00;;;;;;5093640;28;20212;-62
2023/12/30 09:17:16;;;;;;;16.60;5.63;;;8.00;8.70;;;;;;5093278;28;20669;-62
2023/12/30 09:19:42;;;;;;;12.80;5.87;;;8.10;1.00;;;;;;5094278;28;20189;-62
2023/12/30 09:22:09;;;;;;;11.30;5.90;;;8.10;1.00;;;;;;5093482;28;20181;-63
2023/12/30 09:24:36;;;;;;;15.63;5.87;;;8.10;3.20;;;;;;5093715;28;20326;-62
2023/12/30 09:27:02;;;;;;;10.13;5.10;;;8.20;1.00;;;;;;5093678;28;20216;-63
2023/12/30 09:29:28;;;;;;;14.10;5.47;;;8.20;1.00;;;;;;5093805;28;20268;-63
2023/12/30 09:31:54;;;;;;;13.67;5.23;;;8.20;1.00;;;;;;5093728;28;20262;-62
2023/12/30 09:34:20;;;;;;;12.47;5.87;;;8.30;1.00;;;;;;5093584;28;20189;-63
2023/12/30 09:36:46;;;;;;;10.57;5.77;;;8.30;1.00;;;;;;5093166;28;20212;-63
2023/12/30 09:39:12;;;;;;;10.30;5.03;;;8.30;1.00;;;;;;5093164;28;20185;-63
2023/12/30 09:41:41;;;;;;;12.63;6.00;;;8.30;99.90;;;;;;5094537;28;20177;-64
2023/12/30 09:44:08;;;;;;;11.07;5.10;;;8.40;61.90;;;;;;5097183;28;20276;-63
2023/12/30 09:46:36;;;;;;;10.00;5.27;;;8.40;78.70;;;;;;5096743;28;20209;-63
2023/12/30 09:49:06;;;;;;;10.53;5.30;;;8.40;99.90;;;;;;5097272;28;20294;-63
2023/12/30 09:51:32;;;;;;;8.67;5.27;;;8.40;17.30;;;;;;5097754;28;20174;-63
2023/12/30 09:53:59;;;;;;;14.07;5.63;;;8.40;1.00;;;;;;5096789;28;20264;-63
2023/12/30 09:56:26;;;;;;;12.93;5.57;;;8.40;1.00;;;;;;5096832;28;20225;-63
2023/12/30 09:58:54;;;;;;;12.40;5.87;;;8.40;1.00;;;;;;5097436;28;20256;-64
2023/12/30 10:01:20;;;;;;;8.93;5.40;;;8.40;99.90;;;;;;5096765;28;20203;-63
2023/12/30 10:03:47;;;;;;;12.57;5.73;;;8.40;99.90;;;;;;5097023;28;20193;-63
2023/12/30 10:06:14;;;;;;;11.77;5.80;;;8.40;99.90;;;;;;5096309;28;20690;-62
2023/12/30 10:08:42;;;;;;;17.23;6.27;;;8.40;99.90;;;;;;5097202;28;20186;-63
2023/12/30 10:11:09;;;;;;;15.70;5.10;;;8.50;1.00;;;;;;5096770;28;20205;-62
2023/12/30 10:13:38;;;;;;;10.53;5.37;;;8.50;1.00;;;;;;5096717;28;20181;-63
2023/12/30 10:16:08;;;;;;;12.07;5.43;;;8.50;1.00;;;;;;5096328;28;20227;-64
2023/12/30 10:18:38;;;;;;;12.90;5.83;;;8.50;1.00;;;;;;5096497;28;20194;-63
2023/12/30 10:21:05;;;;;;;11.47;5.23;;;8.50;99.90;;;;;;5096589;28;20197;-62
2023/12/30 10:23:34;;;;;;;14.83;6.40;;;8.50;99.90;;;;;;5096736;28;20205;-63
2023/12/30 10:26:02;;;;;;;11.67;5.20;;;8.50;99.90;;;;;;5096958;28;20213;-63
2023/12/30 10:28:29;;;;;;;13.17;5.43;;;8.60;1.00;;;;;;5078450;28;20266;-64
2023/12/30 10:31:06;;;;;;;9.03;5.20;;;8.60;99.90;;;;;;5096453;28;20268;-64
2023/12/30 10:33:33;;;;;;;16.13;6.07;;;8.60;99.90;;;;;;5096378;28;20265;-63
2023/12/30 10:35:59;;;;;;;14.67;5.23;;;8.60;99.90;;;;;;5096588;28;20208;-63
2023/12/30 10:38:26;;;;;;;26.00;7.47;;;8.60;1.00;;;;;;5096548;28;20233;-63
2023/12/30 10:40:52;;;;;;;15.00;6.10;;;8.70;1.00;;;;;;5096452;28;20188;-63
2023/12/30 10:43:19;;;;;;;14.13;5.77;;;8.70;1.00;;;;;;5096585;28;20560;-64
2023/12/30 10:45:59;;;;;;;15.23;6.27;;;8.60;1.00;;;;;;5095297;28;20304;-63
2023/12/30 10:48:33;;;;;;;12.90;6.07;;;8.70;1.00;;;;;;5095480;28;20161;-68
2023/12/30 10:51:02;;;;;;;13.80;6.00;;;8.70;1.00;;;;;;5095799;28;20248;-63
2023/12/30 10:53:44;;;;;;;19.10;6.90;;;8.70;35.70;;;;;;5094831;28;20177;-63
2023/12/30 10:56:11;;;;;;;18.40;6.93;;;8.70;99.90;;;;;;5095628;28;20216;-63
2023/12/30 10:58:40;;;;;;;20.30;5.97;;;8.70;99.90;;;;;;5095736;28;20252;-64
2023/12/30 11:01:06;;;;;;;12.70;6.00;;;8.70;1.00;;;;;;5096391;28;20178;-62
2023/12/30 11:03:34;;;;;;;11.53;6.33;;;8.70;1.00;;;;;;5095589;28;20180;-63
2023/12/30 11:05:59;;;;;;;13.23;5.70;;;8.70;1.00;;;;;;5095639;28;20217;-62
2023/12/30 11:08:26;;;;;;;14.93;5.73;;;8.70;99.90;;;;;;5096172;28;20334;-63
2023/12/30 11:10:51;;;;;;;12.27;5.37;;;8.70;99.90;;;;;;5095890;28;20192;-64
2023/12/30 11:13:20;;;;;;;12.67;6.17;;;8.80;1.00;;;;;;5095728;28;20633;-64
2023/12/30 11:15:46;;;;;;;12.37;5.60;;;8.80;99.90;;;;;;5094865;28;20200;-63
2023/12/30 11:18:15;;;;;;;11.40;5.50;;;8.80;1.00;;;;;;5095273;28;20185;-64
2023/12/30 11:20:49;;;;;;;16.60;6.30;;;8.90;1.00;;;;;;5095537;28;20209;-64
2023/12/30 11:23:16;;;;;;;9.97;5.83;;;8.90;1.00;;;;;;5095568;28;20172;-63
2023/12/30 11:25:47;;;;;;;11.70;5.47;;;8.90;99.90;;;;;;5095285;28;20225;-63
2023/12/30 11:28:17;;;;;;;11.20;5.50;;;8.90;99.90;;;;;;5095413;28;20318;-63
2023/12/30 11:30:45;;;;;;;10.30;5.10;;;9.00;1.00;;;;;;5095374;28;20180;-63
2023/12/30 11:33:12;;;;;;;11.33;5.33;;;9.00;1.00;;;;;;5094891;28;20189;-63
2023/12/30 11:35:39;;;;;;;10.30;5.20;;;9.00;99.90;;;;;;5077311;28;20189;-63
2023/12/30 11:38:11;;;;;;;11.83;5.53;;;9.00;1.00;;;;;;5095488;28;20181;-63
2023/12/30 11:40:42;;;;;;;14.43;5.37;;;9.00;1.00;;;;;;5095450;28;20612;-64
2023/12/30 11:43:11;;;;;;;12.93;5.30;;;9.00;1.00;;;;;;5095456;28;20162;-64
2023/12/30 11:45:37;;;;;;;14.60;5.30;;;9.00;99.90;;;;;;5094945;28;20262;-64
2023/12/30 11:48:03;;;;;;;11.23;5.10;;;9.10;1.00;;;;;;5094001;28;20197;-63
2023/12/30 11:50:29;;;;;;;11.17;5.27;;;9.00;99.90;;;;;;5094277;28;20596;-64
2023/12/30 11:52:56;;;;;;;16.40;5.37;;;9.00;99.90;;;;;;5095345;28;20170;-63
2023/12/30 11:55:23;;;;;;;15.73;5.37;;;9.10;1.00;;;;;;5094887;28;20184;-62
2023/12/30 11:57:51;;;;;;;11.83;4.93;;;9.10;1.00;;;;;;5094836;28;20212;-62
2023/12/30 12:00:17;;;;;;;13.10;5.27;;;9.10;1.00;;;;;;5095497;28;20759;-64
2023/12/30 12:02:43;;;;;;;11.37;5.40;;;9.10;10.70;;;;;;5094579;28;20186;-64
2023/12/30 12:05:09;;;;;;;15.07;5.40;;;9.10;99.90;;;;;;5094035;28;20189;-63
2023/12/30 12:07:34;;;;;;;9.70;5.53;;;9.10;99.90;;;;;;5095077;28;20194;-63
2023/12/30 12:10:00;;;;;;;10.50;5.07;;;9.10;1.00;;;;;;5094980;28;20600;-64
2023/12/30 12:12:35;;;;;;;11.57;5.23;;;9.20;99.90;;;;;;5094305;28;20530;-63
2023/12/30 12:15:02;;;;;;;14.83;5.73;;;9.30;1.00;;;;;;5094851;28;20184;-64
2023/12/30 12:17:28;;;;;;;15.27;5.47;;;9.30;89.60;;;;;;5093783;28;20200;-62
2023/12/30 12:19:53;;;;;;;12.17;5.00;;;9.30;64.80;;;;;;5094167;28;20162;-63
2023/12/30 12:22:21;;;;;;;9.47;5.20;;;9.40;1.00;;;;;;5094172;28;20660;-62
2023/12/30 12:24:47;;;;;;;13.63;5.63;;;9.40;27.70;;;;;;5094239;28;20554;-63
2023/12/30 12:27:19;;;;;;;17.17;6.00;;;9.40;99.90;;;;;;5094256;28;20291;-63
2023/12/30 12:29:48;;;;;;;12.10;4.97;;;9.40;1.00;;;;;;5094399;28;20210;-63
2023/12/30 12:32:15;;;;;;;11.43;5.00;;;9.40;99.90;;;;;;5075736;28;20181;-62
2023/12/30 12:34:41;;;;;;;10.80;6.00;;;9.40;99.90;;;;;;5093835;28;20170;-63
2023/12/30 12:37:12;;;;;;;9.97;5.43;;;9.50;1.00;;;;;;5094380;28;20219;-62
2023/12/30 12:39:38;;;;;;;9.03;5.00;;;9.40;99.90;;;;;;5094402;28;20307;-63
2023/12/30 12:42:04;;;;;;;13.77;5.53;;;9.40;1.00;;;;;;5094176;28;20189;-62
2023/12/30 12:44:30;;;;;;;21.08;6.03;;;9.40;1.00;;;;;;5094124;28;20196;-62
2023/12/30 12:46:56;;;;;;;16.55;5.63;;;9.40;1.00;;;;;;5093858;28;20212;-62
2023/12/30 12:49:23;;;;;;;10.90;5.00;;;9.40;71.10;;;;;;5093712;28;20230;-63